sensor_id;sensor_type;location;lat;lon;timestamp;temperature;humidity
11569;DHT22;5840;46.894;15.542;2023-09-30T00:00:56;13.80;99.90
11569;DHT22;5840;46.894;15.542;2023-09-30T00:03:23;13.80;99.90
11569;DHT22;5840;46.894;15.542;2023-09-30T00:05:52;13.70;99.90
11569;DHT22;5840;46.894;15.542;2023-09-30T00:08:19;13.70;99.90
11569;DHT22;5840;46.894;15.542;2023-09-30T00:10:46;13.60;99.90
11569;DHT22;5840;46.894;15.542;2023-09-30T00:13:13;13.70;99.90
11569;DHT22;5840;46.894;15.542;2023-09-30T00:15:40;13.60;99.90
11569;DHT22;5840;46.894;15.542;2023-09-30T00:18:07;13.60;99.90
11569;DHT22;5840;46.894;15.542;2023-09-30T00:20:35;13.60;99.90
11569;DHT22;5840;46.894;15.542;2023-09-30T00:23:03;13.60;99.90
11569;DHT22;5840;46.894;15.542;2023-09-30T00:25:31;13.60;99.90
11569;DHT22;5840;46.894;15.542;2023-09-30T00:27:58;13.60;99.90
11569;DHT22;5840;46.894;15.542;2023-09-30T00:30:25;13.60;99.90
11569;DHT22;5840;46.894;15.542;2023-09-30T00:32:53;13.60;99.90
11569;DHT22;5840;46.894;15.542;2023-09-30T00:35:20;13.60;99.90
11569;DHT22;5840;46.894;15.542;2023-09-30T00:37:46;13.50;99.90
11569;DHT22;5840;46.894;15.542;2023-09-30T00:40:15;13.50;99.90
11569;DHT22;5840;46.894;15.542;2023-09-30T00:42:42;13.40;99.90
11569;DHT22;5840;46.894;15.542;2023-09-30T00:45:10;13.40;99.90
11569;DHT22;5840;46.894;15.542;2023-09-30T00:47:37;13.30;99.90
11569;DHT22;5840;46.894;15.542;2023-09-30T00:50:05;13.30;99.90
11569;DHT22;5840;46.894;15.542;2023-09-30T00:52:35;13.30;99.90
11569;DHT22;5840;46.894;15.542;2023-09-30T00:55:03;13.30;99.90
11569;DHT22;5840;46.894;15.542;2023-09-30T00:57:33;13.30;99.90
11569;DHT22;5840;46.894;15.542;2023-09-30T01:00:01;13.30;99.90
11569;DHT22;5840;46.894;15.542;2023-09-30T01:02:28;13.30;99.90
11569;DHT22;5840;46.894;15.542;2023-09-30T01:04:55;13.30;99.90
11569;DHT22;5840;46.894;15.542;2023-09-30T01:07:24;13.20;99.90
11569;DHT22;5840;46.894;15.542;2023-09-30T01:09:50;13.20;99.90
11569;DHT22;5840;46.894;15.542;2023-09-30T01:12:17;13.20;99.90
11569;DHT22;5840;46.894;15.542;2023-09-30T01:14:46;13.10;99.90
11569;DHT22;5840;46.894;15.542;2023-09-30T01:17:13;13.10;99.90
11569;DHT22;5840;46.894;15.542;2023-09-30T01:19:40;13.10;99.90
11569;DHT22;5840;46.894;15.542;2023-09-30T01:22:09;13.10;99.90
11569;DHT22;5840;46.894;15.542;2023-09-30T01:24:39;13.10;99.90
11569;DHT22;5840;46.894;15.542;2023-09-30T01:27:07;13.00;99.90
11569;DHT22;5840;46.894;15.542;2023-09-30T01:29:33;13.00;99.90
11569;DHT22;5840;46.894;15.542;2023-09-30T01:32:03;13.00;99.90
11569;DHT22;5840;46.894;15.542;2023-09-30T01:34:33;13.00;99.90
11569;DHT22;5840;46.894;15.542;2023-09-30T01:37:00;13.00;99.90
11569;DHT22;5840;46.894;15.542;2023-09-30T01:39:28;13.00;99.90
11569;DHT22;5840;46.894;15.542;2023-09-30T01:41:55;12.90;99.90
11569;DHT22;5840;46.894;15.542;2023-09-30T01:44:22;12.90;99.90
11569;DHT22;5840;46.894;15.542;2023-09-30T01:46:49;12.80;99.90
11569;DHT22;5840;46.894;15.542;2023-09-30T01:49:17;12.80;99.90
11569;DHT22;5840;46.894;15.542;2023-09-30T01:51:44;12.80;99.90
11569;DHT22;5840;46.894;15.542;2023-09-30T01:54:12;12.80;99.90
11569;DHT22;5840;46.894;15.542;2023-09-30T01:56:40;12.80;99.90
11569;DHT22;5840;46.894;15.542;2023-09-30T01:59:07;12.80;99.90
11569;DHT22;5840;46.894;15.542;2023-09-30T02:01:34;12.80;99.90
11569;DHT22;5840;46.894;15.542;2023-09-30T02:04:00;12.80;99.90
11569;DHT22;5840;46.894;15.542;2023-09-30T02:06:28;12.70;99.90
11569;DHT22;5840;46.894;15.542;2023-09-30T02:08:55;12.70;99.90
11569;DHT22;5840;46.894;15.542;2023-09-30T02:11:22;12.70;99.90
11569;DHT22;5840;46.894;15.542;2023-09-30T02:13:50;12.70;99.90
11569;DHT22;5840;46.894;15.542;2023-09-30T02:16:17;12.70;99.90
11569;DHT22;5840;46.894;15.542;2023-09-30T02:18:44;12.70;99.90
11569;DHT22;5840;46.894;15.542;2023-09-30T02:21:11;12.70;99.90
11569;DHT22;5840;46.894;15.542;2023-09-30T02:23:38;12.70;99.90
11569;DHT22;5840;46.894;15.542;2023-09-30T02:26:05;12.70;99.90
11569;DHT22;5840;46.894;15.542;2023-09-30T02:28:33;12.70;99.90
11569;DHT22;5840;46.894;15.542;2023-09-30T02:31:01;12.70;99.90
11569;DHT22;5840;46.894;15.542;2023-09-30T02:33:28;12.80;99.90
11569;DHT22;5840;46.894;15.542;2023-09-30T02:35:55;12.80;99.90
11569;DHT22;5840;46.894;15.542;2023-09-30T02:38:22;12.80;99.90
11569;DHT22;5840;46.894;15.542;2023-09-30T02:40:50;12.70;99.90
11569;DHT22;5840;46.894;15.542;2023-09-30T02:43:17;12.70;99.90
11569;DHT22;5840;46.894;15.542;2023-09-30T02:45:45;12.60;99.90
11569;DHT22;5840;46.894;15.542;2023-09-30T02:48:13;12.60;99.90
11569;DHT22;5840;46.894;15.542;2023-09-30T02:50:42;12.60;99.90
11569;DHT22;5840;46.894;15.542;2023-09-30T02:53:10;12.60;99.90
11569;DHT22;5840;46.894;15.542;2023-09-30T02:55:37;12.60;99.90
11569;DHT22;5840;46.894;15.542;2023-09-30T02:58:04;12.70;99.90
11569;DHT22;5840;46.894;15.542;2023-09-30T03:00:33;12.70;99.90
11569;DHT22;5840;46.894;15.542;2023-09-30T03:03:01;12.70;99.90
11569;DHT22;5840;46.894;15.542;2023-09-30T03:05:30;12.70;99.90
11569;DHT22;5840;46.894;15.542;2023-09-30T03:07:59;12.70;99.90
11569;DHT22;5840;46.894;15.542;2023-09-30T03:10:26;12.80;99.90
11569;DHT22;5840;46.894;15.542;2023-09-30T03:12:53;12.80;99.90
11569;DHT22;5840;46.894;15.542;2023-09-30T03:15:20;12.80;99.90
11569;DHT22;5840;46.894;15.542;2023-09-30T03:17:47;12.80;99.90
11569;DHT22;5840;46.894;15.542;2023-09-30T03:20:14;12.80;99.90
11569;DHT22;5840;46.894;15.542;2023-09-30T03:22:46;12.80;99.90
11569;DHT22;5840;46.894;15.542;2023-09-30T03:25:14;12.70;99.90
11569;DHT22;5840;46.894;15.542;2023-09-30T03:27:43;12.80;99.90
11569;DHT22;5840;46.894;15.542;2023-09-30T03:30:12;12.70;99.90
11569;DHT22;5840;46.894;15.542;2023-09-30T03:32:40;12.70;99.90
11569;DHT22;5840;46.894;15.542;2023-09-30T03:35:08;12.80;99.90
11569;DHT22;5840;46.894;15.542;2023-09-30T03:37:37;12.80;99.90
11569;DHT22;5840;46.894;15.542;2023-09-30T03:40:06;12.80;99.90
11569;DHT22;5840;46.894;15.542;2023-09-30T03:42:40;12.80;99.90
11569;DHT22;5840;46.894;15.542;2023-09-30T03:45:09;12.80;99.90
11569;DHT22;5840;46.894;15.542;2023-09-30T03:47:37;12.80;99.90
11569;DHT22;5840;46.894;15.542;2023-09-30T03:50:05;12.80;99.90
11569;DHT22;5840;46.894;15.542;2023-09-30T03:52:38;12.80;99.90
11569;DHT22;5840;46.894;15.542;2023-09-30T03:55:07;12.80;99.90
11569;DHT22;5840;46.894;15.542;2023-09-30T03:57:37;12.70;99.90
11569;DHT22;5840;46.894;15.542;2023-09-30T04:00:05;12.80;99.90
11569;DHT22;5840;46.894;15.542;2023-09-30T04:02:32;12.70;99.90
11569;DHT22;5840;46.894;15.542;2023-09-30T04:04:59;12.80;99.90
11569;DHT22;5840;46.894;15.542;2023-09-30T04:07:30;12.80;99.90
11569;DHT22;5840;46.894;15.542;2023-09-30T04:09:56;12.80;99.90
11569;DHT22;5840;46.894;15.542;2023-09-30T04:12:28;12.80;99.90
11569;DHT22;5840;46.894;15.542;2023-09-30T04:14:55;12.80;99.90
11569;DHT22;5840;46.894;15.542;2023-09-30T04:17:22;12.90;99.90
11569;DHT22;5840;46.894;15.542;2023-09-30T04:19:49;12.90;99.90
11569;DHT22;5840;46.894;15.542;2023-09-30T04:22:18;12.90;99.90
11569;DHT22;5840;46.894;15.542;2023-09-30T04:24:46;12.90;99.90
11569;DHT22;5840;46.894;15.542;2023-09-30T04:27:14;12.90;99.90
11569;DHT22;5840;46.894;15.542;2023-09-30T04:29:43;12.90;99.90
11569;DHT22;5840;46.894;15.542;2023-09-30T04:32:10;12.90;99.90
11569;DHT22;5840;46.894;15.542;2023-09-30T04:34:37;12.90;99.90
11569;DHT22;5840;46.894;15.542;2023-09-30T04:37:04;12.90;99.90
11569;DHT22;5840;46.894;15.542;2023-09-30T04:39:31;12.90;99.90
11569;DHT22;5840;46.894;15.542;2023-09-30T04:42:01;12.90;99.90
11569;DHT22;5840;46.894;15.542;2023-09-30T04:44:29;12.90;99.90
11569;DHT22;5840;46.894;15.542;2023-09-30T04:46:57;12.90;99.90
11569;DHT22;5840;46.894;15.542;2023-09-30T04:49:26;12.90;99.90
11569;DHT22;5840;46.894;15.542;2023-09-30T04:51:53;13.00;99.90
11569;DHT22;5840;46.894;15.542;2023-09-30T04:54:20;13.00;99.90
11569;DHT22;5840;46.894;15.542;2023-09-30T04:56:47;13.00;99.90
11569;DHT22;5840;46.894;15.542;2023-09-30T04:59:16;13.00;99.90
11569;DHT22;5840;46.894;15.542;2023-09-30T05:01:43;13.00;99.90
11569;DHT22;5840;46.894;15.542;2023-09-30T05:04:11;13.00;99.90
11569;DHT22;5840;46.894;15.542;2023-09-30T05:06:38;13.00;99.90
11569;DHT22;5840;46.894;15.542;2023-09-30T05:09:05;13.10;99.90
11569;DHT22;5840;46.894;15.542;2023-09-30T05:11:32;13.10;99.90
11569;DHT22;5840;46.894;15.542;2023-09-30T05:14:00;13.10;99.90
11569;DHT22;5840;46.894;15.542;2023-09-30T05:16:30;13.10;99.90
11569;DHT22;5840;46.894;15.542;2023-09-30T05:18:57;13.10;99.90
11569;DHT22;5840;46.894;15.542;2023-09-30T05:21:25;13.10;99.90
11569;DHT22;5840;46.894;15.542;2023-09-30T05:23:52;13.10;99.90
11569;DHT22;5840;46.894;15.542;2023-09-30T05:26:19;13.10;99.90
11569;DHT22;5840;46.894;15.542;2023-09-30T05:28:46;13.10;99.90
11569;DHT22;5840;46.894;15.542;2023-09-30T05:31:13;13.10;99.90
11569;DHT22;5840;46.894;15.542;2023-09-30T05:33:40;13.20;99.90
11569;DHT22;5840;46.894;15.542;2023-09-30T05:36:07;13.20;99.90
11569;DHT22;5840;46.894;15.542;2023-09-30T05:38:35;13.20;99.90
11569;DHT22;5840;46.894;15.542;2023-09-30T05:41:02;13.20;99.90
11569;DHT22;5840;46.894;15.542;2023-09-30T05:43:29;13.30;99.90
11569;DHT22;5840;46.894;15.542;2023-09-30T05:45:56;13.30;99.90
11569;DHT22;5840;46.894;15.542;2023-09-30T05:48:24;13.30;99.90
11569;DHT22;5840;46.894;15.542;2023-09-30T05:50:51;13.40;99.90
11569;DHT22;5840;46.894;15.542;2023-09-30T05:53:17;13.40;99.90
11569;DHT22;5840;46.894;15.542;2023-09-30T05:55:47;13.40;99.90
11569;DHT22;5840;46.894;15.542;2023-09-30T05:58:14;13.40;99.90
11569;DHT22;5840;46.894;15.542;2023-09-30T06:00:42;13.40;99.90
11569;DHT22;5840;46.894;15.542;2023-09-30T06:03:09;13.40;99.90
11569;DHT22;5840;46.894;15.542;2023-09-30T06:05:39;13.50;99.90
11569;DHT22;5840;46.894;15.542;2023-09-30T06:08:08;13.50;99.90
11569;DHT22;5840;46.894;15.542;2023-09-30T06:10:36;13.60;99.90
11569;DHT22;5840;46.894;15.542;2023-09-30T06:13:09;13.60;99.90
11569;DHT22;5840;46.894;15.542;2023-09-30T06:15:37;13.60;99.90
11569;DHT22;5840;46.894;15.542;2023-09-30T06:18:08;13.60;99.90
11569;DHT22;5840;46.894;15.542;2023-09-30T06:20:37;13.60;99.90
11569;DHT22;5840;46.894;15.542;2023-09-30T06:23:04;13.60;99.90
11569;DHT22;5840;46.894;15.542;2023-09-30T06:25:32;13.70;99.90
11569;DHT22;5840;46.894;15.542;2023-09-30T06:27:59;13.70;99.90
11569;DHT22;5840;46.894;15.542;2023-09-30T06:30:27;13.70;99.90
11569;DHT22;5840;46.894;15.542;2023-09-30T06:32:56;13.70;99.90
11569;DHT22;5840;46.894;15.542;2023-09-30T06:35:23;13.80;99.90
11569;DHT22;5840;46.894;15.542;2023-09-30T06:37:52;13.80;99.90
11569;DHT22;5840;46.894;15.542;2023-09-30T06:40:19;13.90;99.90
11569;DHT22;5840;46.894;15.542;2023-09-30T06:42:46;13.90;99.90
11569;DHT22;5840;46.894;15.542;2023-09-30T06:45:13;13.90;99.90
11569;DHT22;5840;46.894;15.542;2023-09-30T06:47:43;14.00;99.90
11569;DHT22;5840;46.894;15.542;2023-09-30T06:50:14;14.00;99.90
11569;DHT22;5840;46.894;15.542;2023-09-30T06:52:43;14.00;99.90
11569;DHT22;5840;46.894;15.542;2023-09-30T06:55:11;14.00;99.90
11569;DHT22;5840;46.894;15.542;2023-09-30T06:57:40;14.00;99.90
11569;DHT22;5840;46.894;15.542;2023-09-30T07:00:09;14.00;99.90
11569;DHT22;5840;46.894;15.542;2023-09-30T07:02:38;14.10;99.90
11569;DHT22;5840;46.894;15.542;2023-09-30T07:05:08;14.10;99.90
11569;DHT22;5840;46.894;15.542;2023-09-30T07:07:35;14.10;99.90
11569;DHT22;5840;46.894;15.542;2023-09-30T07:10:02;14.20;99.90
11569;DHT22;5840;46.894;15.542;2023-09-30T07:12:30;14.20;99.90
11569;DHT22;5840;46.894;15.542;2023-09-30T07:14:58;14.20;99.90
11569;DHT22;5840;46.894;15.542;2023-09-30T07:17:24;14.30;99.90
11569;DHT22;5840;46.894;15.542;2023-09-30T07:19:52;14.30;99.90
11569;DHT22;5840;46.894;15.542;2023-09-30T07:22:20;14.30;99.90
11569;DHT22;5840;46.894;15.542;2023-09-30T07:24:47;14.40;99.90
11569;DHT22;5840;46.894;15.542;2023-09-30T07:27:14;14.40;99.90
11569;DHT22;5840;46.894;15.542;2023-09-30T07:29:41;14.40;99.90
11569;DHT22;5840;46.894;15.542;2023-09-30T07:32:08;14.50;99.90
11569;DHT22;5840;46.894;15.542;2023-09-30T07:34:35;14.50;99.90
11569;DHT22;5840;46.894;15.542;2023-09-30T07:37:02;14.50;99.90
11569;DHT22;5840;46.894;15.542;2023-09-30T07:39:30;14.60;99.90
11569;DHT22;5840;46.894;15.542;2023-09-30T07:41:57;14.60;99.90
11569;DHT22;5840;46.894;15.542;2023-09-30T07:44:24;14.60;99.90
11569;DHT22;5840;46.894;15.542;2023-09-30T07:46:51;14.70;99.90
11569;DHT22;5840;46.894;15.542;2023-09-30T07:49:18;14.80;99.90
11569;DHT22;5840;46.894;15.542;2023-09-30T07:51:45;14.80;99.90
11569;DHT22;5840;46.894;15.542;2023-09-30T07:54:12;14.90;99.90
11569;DHT22;5840;46.894;15.542;2023-09-30T07:56:41;15.00;99.90
11569;DHT22;5840;46.894;15.542;2023-09-30T07:59:08;15.00;99.90
11569;DHT22;5840;46.894;15.542;2023-09-30T08:01:35;15.10;99.90
11569;DHT22;5840;46.894;15.542;2023-09-30T08:04:03;15.10;99.90
11569;DHT22;5840;46.894;15.542;2023-09-30T08:06:30;15.20;99.90
11569;DHT22;5840;46.894;15.542;2023-09-30T08:08:57;15.20;99.90
11569;DHT22;5840;46.894;15.542;2023-09-30T08:11:24;15.20;99.90
11569;DHT22;5840;46.894;15.542;2023-09-30T08:13:54;15.20;99.90
11569;DHT22;5840;46.894;15.542;2023-09-30T08:16:21;15.20;99.90
11569;DHT22;5840;46.894;15.542;2023-09-30T08:18:48;15.20;99.90
11569;DHT22;5840;46.894;15.542;2023-09-30T08:21:15;15.20;99.90
11569;DHT22;5840;46.894;15.542;2023-09-30T08:23:42;15.30;99.90
11569;DHT22;5840;46.894;15.542;2023-09-30T08:26:09;15.30;99.90
11569;DHT22;5840;46.894;15.542;2023-09-30T08:28:37;15.40;99.90
11569;DHT22;5840;46.894;15.542;2023-09-30T08:31:05;15.30;99.90
11569;DHT22;5840;46.894;15.542;2023-09-30T08:33:32;15.30;99.90
11569;DHT22;5840;46.894;15.542;2023-09-30T08:36:02;15.30;99.90
11569;DHT22;5840;46.894;15.542;2023-09-30T08:38:33;15.30;99.90
11569;DHT22;5840;46.894;15.542;2023-09-30T08:41:00;15.30;99.90
11569;DHT22;5840;46.894;15.542;2023-09-30T08:43:28;15.30;99.90
11569;DHT22;5840;46.894;15.542;2023-09-30T08:45:57;15.30;99.90
11569;DHT22;5840;46.894;15.542;2023-09-30T08:48:26;15.40;99.90
11569;DHT22;5840;46.894;15.542;2023-09-30T08:50:54;15.40;99.90
11569;DHT22;5840;46.894;15.542;2023-09-30T08:53:22;15.40;99.90
11569;DHT22;5840;46.894;15.542;2023-09-30T08:55:53;15.40;99.90
11569;DHT22;5840;46.894;15.542;2023-09-30T08:58:23;15.50;99.90
11569;DHT22;5840;46.894;15.542;2023-09-30T09:00:50;15.50;99.90
11569;DHT22;5840;46.894;15.542;2023-09-30T09:03:19;15.50;99.90
11569;DHT22;5840;46.894;15.542;2023-09-30T09:05:53;15.50;99.90
11569;DHT22;5840;46.894;15.542;2023-09-30T09:08:21;15.50;99.90
11569;DHT22;5840;46.894;15.542;2023-09-30T09:10:54;15.50;99.90
11569;DHT22;5840;46.894;15.542;2023-09-30T09:13:23;15.50;99.90
11569;DHT22;5840;46.894;15.542;2023-09-30T09:15:50;15.60;99.90
11569;DHT22;5840;46.894;15.542;2023-09-30T09:18:32;15.60;99.90
11569;DHT22;5840;46.894;15.542;2023-09-30T09:21:13;15.70;99.90
11569;DHT22;5840;46.894;15.542;2023-09-30T09:23:44;15.90;99.90
11569;DHT22;5840;46.894;15.542;2023-09-30T09:26:11;16.00;99.90
11569;DHT22;5840;46.894;15.542;2023-09-30T09:28:39;16.10;99.90
11569;DHT22;5840;46.894;15.542;2023-09-30T09:31:23;16.30;99.90
11569;DHT22;5840;46.894;15.542;2023-09-30T09:33:50;16.50;99.90
11569;DHT22;5840;46.894;15.542;2023-09-30T09:36:19;16.70;99.90
11569;DHT22;5840;46.894;15.542;2023-09-30T09:38:47;16.80;99.90
11569;DHT22;5840;46.894;15.542;2023-09-30T09:41:15;17.00;99.90
11569;DHT22;5840;46.894;15.542;2023-09-30T09:43:43;17.00;99.90
11569;DHT22;5840;46.894;15.542;2023-09-30T09:46:10;17.10;99.90
11569;DHT22;5840;46.894;15.542;2023-09-30T09:48:39;17.20;99.90
11569;DHT22;5840;46.894;15.542;2023-09-30T09:51:09;17.30;99.90
11569;DHT22;5840;46.894;15.542;2023-09-30T09:53:41;17.30;99.90
11569;DHT22;5840;46.894;15.542;2023-09-30T09:56:09;17.40;99.90
11569;DHT22;5840;46.894;15.542;2023-09-30T09:58:40;17.50;99.90
11569;DHT22;5840;46.894;15.542;2023-09-30T10:01:10;17.70;99.90
11569;DHT22;5840;46.894;15.542;2023-09-30T10:03:38;18.00;99.90
11569;DHT22;5840;46.894;15.542;2023-09-30T10:06:05;18.30;99.90
11569;DHT22;5840;46.894;15.542;2023-09-30T10:08:41;18.50;99.90
11569;DHT22;5840;46.894;15.542;2023-09-30T10:11:16;18.80;99.90
11569;DHT22;5840;46.894;15.542;2023-09-30T10:13:56;19.00;99.90
11569;DHT22;5840;46.894;15.542;2023-09-30T10:16:48;19.20;99.90
11569;DHT22;5840;46.894;15.542;2023-09-30T10:19:20;19.80;99.90
11569;DHT22;5840;46.894;15.542;2023-09-30T10:22:20;20.60;99.90
11569;DHT22;5840;46.894;15.542;2023-09-30T10:24:50;21.40;99.90
11569;DHT22;5840;46.894;15.542;2023-09-30T10:27:34;21.80;99.90
11569;DHT22;5840;46.894;15.542;2023-09-30T10:30:07;22.00;99.90
11569;DHT22;5840;46.894;15.542;2023-09-30T10:33:08;22.30;99.90
11569;DHT22;5840;46.894;15.542;2023-09-30T10:35:44;22.70;99.90
11569;DHT22;5840;46.894;15.542;2023-09-30T10:38:39;22.90;99.90
11569;DHT22;5840;46.894;15.542;2023-09-30T10:41:10;23.30;99.90
11569;DHT22;5840;46.894;15.542;2023-09-30T10:44:31;23.60;99.90
11569;DHT22;5840;46.894;15.542;2023-09-30T10:46:59;24.00;99.90
11569;DHT22;5840;46.894;15.542;2023-09-30T10:49:30;24.10;99.90
11569;DHT22;5840;46.894;15.542;2023-09-30T10:52:04;24.40;99.90
11569;DHT22;5840;46.894;15.542;2023-09-30T10:54:32;24.40;99.90
11569;DHT22;5840;46.894;15.542;2023-09-30T10:57:01;24.40;99.90
11569;DHT22;5840;46.894;15.542;2023-09-30T10:59:29;24.40;99.90
11569;DHT22;5840;46.894;15.542;2023-09-30T11:01:57;24.10;99.90
11569;DHT22;5840;46.894;15.542;2023-09-30T11:04:24;24.20;99.90
11569;DHT22;5840;46.894;15.542;2023-09-30T11:06:52;24.50;99.90
11569;DHT22;5840;46.894;15.542;2023-09-30T11:09:20;24.80;99.90
11569;DHT22;5840;46.894;15.542;2023-09-30T11:11:49;25.10;99.90
11569;DHT22;5840;46.894;15.542;2023-09-30T11:14:22;25.30;99.90
11569;DHT22;5840;46.894;15.542;2023-09-30T11:16:50;25.50;99.90
11569;DHT22;5840;46.894;15.542;2023-09-30T11:19:18;25.70;99.90
11569;DHT22;5840;46.894;15.542;2023-09-30T11:21:47;25.90;99.90
11569;DHT22;5840;46.894;15.542;2023-09-30T11:24:15;26.10;99.30
11569;DHT22;5840;46.894;15.542;2023-09-30T11:26:42;26.00;96.50
11569;DHT22;5840;46.894;15.542;2023-09-30T11:29:11;26.00;98.20
11569;DHT22;5840;46.894;15.542;2023-09-30T11:31:40;26.00;98.10
11569;DHT22;5840;46.894;15.542;2023-09-30T11:34:08;25.90;98.50
11569;DHT22;5840;46.894;15.542;2023-09-30T11:36:38;25.70;97.60
11569;DHT22;5840;46.894;15.542;2023-09-30T11:39:06;25.70;98.90
11569;DHT22;5840;46.894;15.542;2023-09-30T11:41:35;25.60;97.30
11569;DHT22;5840;46.894;15.542;2023-09-30T11:44:05;25.50;99.50
11569;DHT22;5840;46.894;15.542;2023-09-30T11:46:48;25.40;99.90
11569;DHT22;5840;46.894;15.542;2023-09-30T11:49:25;25.60;98.90
11569;DHT22;5840;46.894;15.542;2023-09-30T11:51:53;25.80;97.30
11569;DHT22;5840;46.894;15.542;2023-09-30T11:54:20;26.00;98.00
11569;DHT22;5840;46.894;15.542;2023-09-30T11:56:48;26.20;99.50
11569;DHT22;5840;46.894;15.542;2023-09-30T11:59:16;26.40;97.80
11569;DHT22;5840;46.894;15.542;2023-09-30T12:01:45;26.50;96.90
11569;DHT22;5840;46.894;15.542;2023-09-30T12:04:15;26.60;98.90
11569;DHT22;5840;46.894;15.542;2023-09-30T12:06:45;26.70;96.30
11569;DHT22;5840;46.894;15.542;2023-09-30T12:09:13;26.70;96.40
11569;DHT22;5840;46.894;15.542;2023-09-30T12:11:41;26.50;96.90
11569;DHT22;5840;46.894;15.542;2023-09-30T12:14:10;26.10;96.20
11569;DHT22;5840;46.894;15.542;2023-09-30T12:16:38;25.80;98.20
11569;DHT22;5840;46.894;15.542;2023-09-30T12:19:05;25.40;98.60
11569;DHT22;5840;46.894;15.542;2023-09-30T12:21:34;25.00;98.70
11569;DHT22;5840;46.894;15.542;2023-09-30T12:24:02;24.70;99.20
11569;DHT22;5840;46.894;15.542;2023-09-30T12:26:30;24.60;99.90
11569;DHT22;5840;46.894;15.542;2023-09-30T12:28:57;24.50;99.30
11569;DHT22;5840;46.894;15.542;2023-09-30T12:31:24;24.40;99.90
11569;DHT22;5840;46.894;15.542;2023-09-30T12:33:51;24.30;99.90
11569;DHT22;5840;46.894;15.542;2023-09-30T12:36:19;24.20;99.60
11569;DHT22;5840;46.894;15.542;2023-09-30T12:38:48;24.20;99.80
11569;DHT22;5840;46.894;15.542;2023-09-30T12:41:15;24.10;99.30
11569;DHT22;5840;46.894;15.542;2023-09-30T12:43:45;23.90;99.90
11569;DHT22;5840;46.894;15.542;2023-09-30T12:46:12;23.80;99.90
11569;DHT22;5840;46.894;15.542;2023-09-30T12:48:39;23.70;99.90
11569;DHT22;5840;46.894;15.542;2023-09-30T12:51:07;23.60;99.90
11569;DHT22;5840;46.894;15.542;2023-09-30T12:53:34;23.50;99.90
11569;DHT22;5840;46.894;15.542;2023-09-30T12:56:03;23.40;99.90
11569;DHT22;5840;46.894;15.542;2023-09-30T12:58:30;23.40;99.90
11569;DHT22;5840;46.894;15.542;2023-09-30T13:00:58;23.40;99.90
11569;DHT22;5840;46.894;15.542;2023-09-30T13:03:25;23.40;99.90
11569;DHT22;5840;46.894;15.542;2023-09-30T13:05:52;23.40;99.90
11569;DHT22;5840;46.894;15.542;2023-09-30T13:08:20;23.30;99.90
11569;DHT22;5840;46.894;15.542;2023-09-30T13:10:46;23.20;99.90
11569;DHT22;5840;46.894;15.542;2023-09-30T13:13:17;23.20;99.90
11569;DHT22;5840;46.894;15.542;2023-09-30T13:15:44;23.20;99.90
11569;DHT22;5840;46.894;15.542;2023-09-30T13:18:11;23.20;99.90
11569;DHT22;5840;46.894;15.542;2023-09-30T13:20:38;23.20;99.90
11569;DHT22;5840;46.894;15.542;2023-09-30T13:23:05;23.30;99.90
11569;DHT22;5840;46.894;15.542;2023-09-30T13:25:32;23.50;99.90
11569;DHT22;5840;46.894;15.542;2023-09-30T13:27:59;23.60;99.90
11569;DHT22;5840;46.894;15.542;2023-09-30T13:30:29;23.80;99.90
11569;DHT22;5840;46.894;15.542;2023-09-30T13:32:55;23.80;99.90
11569;DHT22;5840;46.894;15.542;2023-09-30T13:35:22;23.80;99.90
11569;DHT22;5840;46.894;15.542;2023-09-30T13:37:50;23.70;99.90
11569;DHT22;5840;46.894;15.542;2023-09-30T13:40:17;23.70;99.90
11569;DHT22;5840;46.894;15.542;2023-09-30T13:42:45;23.70;99.90
11569;DHT22;5840;46.894;15.542;2023-09-30T13:45:13;23.70;99.90
11569;DHT22;5840;46.894;15.542;2023-09-30T13:47:44;23.70;99.90
11569;DHT22;5840;46.894;15.542;2023-09-30T13:50:11;23.70;99.90
11569;DHT22;5840;46.894;15.542;2023-09-30T13:52:38;23.50;99.90
11569;DHT22;5840;46.894;15.542;2023-09-30T13:55:05;23.40;99.90
11569;DHT22;5840;46.894;15.542;2023-09-30T13:57:32;23.30;99.90
11569;DHT22;5840;46.894;15.542;2023-09-30T14:00:00;23.20;99.90
11569;DHT22;5840;46.894;15.542;2023-09-30T14:02:28;23.10;99.90
11569;DHT22;5840;46.894;15.542;2023-09-30T14:04:56;23.10;99.90
11569;DHT22;5840;46.894;15.542;2023-09-30T14:07:23;23.10;99.90
11569;DHT22;5840;46.894;15.542;2023-09-30T14:09:51;23.10;99.90
11569;DHT22;5840;46.894;15.542;2023-09-30T14:12:19;23.20;99.70
11569;DHT22;5840;46.894;15.542;2023-09-30T14:14:46;23.30;99.90
11569;DHT22;5840;46.894;15.542;2023-09-30T14:17:13;23.30;99.90
11569;DHT22;5840;46.894;15.542;2023-09-30T14:19:40;23.30;99.90
11569;DHT22;5840;46.894;15.542;2023-09-30T14:22:09;23.20;99.90
11569;DHT22;5840;46.894;15.542;2023-09-30T14:24:36;23.30;99.90
11569;DHT22;5840;46.894;15.542;2023-09-30T14:27:03;23.30;99.90
11569;DHT22;5840;46.894;15.542;2023-09-30T14:29:31;23.20;99.90
11569;DHT22;5840;46.894;15.542;2023-09-30T14:31:58;23.20;99.90
11569;DHT22;5840;46.894;15.542;2023-09-30T14:34:25;23.20;99.90
11569;DHT22;5840;46.894;15.542;2023-09-30T14:36:52;23.10;99.90
11569;DHT22;5840;46.894;15.542;2023-09-30T14:39:21;23.10;99.90
11569;DHT22;5840;46.894;15.542;2023-09-30T14:41:48;23.00;99.90
11569;DHT22;5840;46.894;15.542;2023-09-30T14:44:15;22.90;99.90
11569;DHT22;5840;46.894;15.542;2023-09-30T14:46:42;22.80;99.90
11569;DHT22;5840;46.894;15.542;2023-09-30T14:49:10;22.70;99.90
11569;DHT22;5840;46.894;15.542;2023-09-30T14:51:37;22.70;99.90
11569;DHT22;5840;46.894;15.542;2023-09-30T14:54:05;22.70;99.90
11569;DHT22;5840;46.894;15.542;2023-09-30T14:56:33;22.60;99.90
11569;DHT22;5840;46.894;15.542;2023-09-30T14:59:00;22.50;99.90
11569;DHT22;5840;46.894;15.542;2023-09-30T15:01:28;22.50;99.90
11569;DHT22;5840;46.894;15.542;2023-09-30T15:03:55;22.40;99.90
11569;DHT22;5840;46.894;15.542;2023-09-30T15:06:22;22.40;99.90
11569;DHT22;5840;46.894;15.542;2023-09-30T15:08:50;22.30;99.90
11569;DHT22;5840;46.894;15.542;2023-09-30T15:11:17;22.30;99.90
11569;DHT22;5840;46.894;15.542;2023-09-30T15:13:46;22.20;99.90
11569;DHT22;5840;46.894;15.542;2023-09-30T15:16:17;22.10;99.90
11569;DHT22;5840;46.894;15.542;2023-09-30T15:18:45;22.10;99.90
11569;DHT22;5840;46.894;15.542;2023-09-30T15:21:12;22.00;99.90
11569;DHT22;5840;46.894;15.542;2023-09-30T15:23:39;22.00;99.90
11569;DHT22;5840;46.894;15.542;2023-09-30T15:26:06;22.00;99.90
11569;DHT22;5840;46.894;15.542;2023-09-30T15:28:33;21.90;99.90
11569;DHT22;5840;46.894;15.542;2023-09-30T15:31:01;21.90;99.90
11569;DHT22;5840;46.894;15.542;2023-09-30T15:33:29;21.80;99.90
11569;DHT22;5840;46.894;15.542;2023-09-30T15:35:56;21.80;99.90
11569;DHT22;5840;46.894;15.542;2023-09-30T15:38:23;21.70;99.90